sensor_id;sensor_type;location;lat;lon;timestamp;P1;durP1;ratioP1;P2;durP2;ratioP2
2940;SDS011;1480;51.456;6.670;2022-10-23T00:00:29;12.83;;;6.00;;
2940;SDS011;1480;51.456;6.670;2022-10-23T00:02:56;12.17;;;6.23;;
2940;SDS011;1480;51.456;6.670;2022-10-23T00:08:10;9.07;;;5.77;;
2940;SDS011;1480;51.456;6.670;2022-10-23T00:10:39;12.80;;;5.53;;
2940;SDS011;1480;51.456;6.670;2022-10-23T00:13:12;12.90;;;6.07;;
2940;SDS011;1480;51.456;6.670;2022-10-23T00:15:39;10.80;;;6.17;;
2940;SDS011;1480;51.456;6.670;2022-10-23T00:18:06;10.43;;;5.83;;
2940;SDS011;1480;51.456;6.670;2022-10-23T00:20:33;9.70;;;5.63;;
2940;SDS011;1480;51.456;6.670;2022-10-23T00:23:00;11.43;;;6.13;;
2940;SDS011;1480;51.456;6.670;2022-10-23T00:25:28;10.33;;;6.13;;
2940;SDS011;1480;51.456;6.670;2022-10-23T00:27:56;16.37;;;6.40;;
2940;SDS011;1480;51.456;6.670;2022-10-23T00:30:23;9.07;;;5.30;;
2940;SDS011;1480;51.456;6.670;2022-10-23T00:32:53;11.23;;;5.67;;
2940;SDS011;1480;51.456;6.670;2022-10-23T00:35:20;8.23;;;5.13;;
2940;SDS011;1480;51.456;6.670;2022-10-23T00:37:52;6.90;;;5.40;;
2940;SDS011;1480;51.456;6.670;2022-10-23T00:40:38;10.27;;;6.23;;
2940;SDS011;1480;51.456;6.670;2022-10-23T00:43:06;8.93;;;5.33;;
2940;SDS011;1480;51.456;6.670;2022-10-23T00:45:42;7.60;;;5.40;;
2940;SDS011;1480;51.456;6.670;2022-10-23T00:48:09;11.63;;;6.57;;
2940;SDS011;1480;51.456;6.670;2022-10-23T00:50:36;8.40;;;5.37;;
2940;SDS011;1480;51.456;6.670;2022-10-23T00:53:10;10.90;;;6.00;;
2940;SDS011;1480;51.456;6.670;2022-10-23T00:55:40;8.17;;;5.10;;
2940;SDS011;1480;51.456;6.670;2022-10-23T00:58:11;14.17;;;5.97;;
2940;SDS011;1480;51.456;6.670;2022-10-23T01:00:42;10.20;;;5.00;;
2940;SDS011;1480;51.456;6.670;2022-10-23T01:03:11;8.63;;;5.33;;
2940;SDS011;1480;51.456;6.670;2022-10-23T01:05:40;9.07;;;4.90;;
2940;SDS011;1480;51.456;6.670;2022-10-23T01:08:15;9.80;;;5.07;;
2940;SDS011;1480;51.456;6.670;2022-10-23T01:10:51;6.87;;;4.10;;
2940;SDS011;1480;51.456;6.670;2022-10-23T01:13:29;5.43;;;3.97;;
2940;SDS011;1480;51.456;6.670;2022-10-23T01:16:04;8.03;;;4.37;;
2940;SDS011;1480;51.456;6.670;2022-10-23T01:18:36;6.50;;;3.47;;
2940;SDS011;1480;51.456;6.670;2022-10-23T01:21:08;9.97;;;3.87;;
2940;SDS011;1480;51.456;6.670;2022-10-23T01:23:41;8.13;;;3.40;;
2940;SDS011;1480;51.456;6.670;2022-10-23T01:26:29;10.43;;;4.30;;
2940;SDS011;1480;51.456;6.670;2022-10-23T01:29:04;10.50;;;3.53;;
2940;SDS011;1480;51.456;6.670;2022-10-23T01:31:38;8.53;;;3.30;;
2940;SDS011;1480;51.456;6.670;2022-10-23T01:34:21;7.60;;;3.67;;
2940;SDS011;1480;51.456;6.670;2022-10-23T01:36:56;5.70;;;3.20;;
2940;SDS011;1480;51.456;6.670;2022-10-23T01:39:32;13.93;;;3.80;;
2940;SDS011;1480;51.456;6.670;2022-10-23T01:42:04;7.93;;;3.90;;
2940;SDS011;1480;51.456;6.670;2022-10-23T01:44:38;11.30;;;3.80;;
2940;SDS011;1480;51.456;6.670;2022-10-23T01:47:09;6.37;;;3.40;;
2940;SDS011;1480;51.456;6.670;2022-10-23T01:49:51;7.10;;;3.20;;
2940;SDS011;1480;51.456;6.670;2022-10-23T01:52:20;6.87;;;3.20;;
2940;SDS011;1480;51.456;6.670;2022-10-23T01:54:50;10.07;;;2.90;;
2940;SDS011;1480;51.456;6.670;2022-10-23T01:57:20;6.33;;;3.13;;
2940;SDS011;1480;51.456;6.670;2022-10-23T01:59:50;5.50;;;3.50;;
2940;SDS011;1480;51.456;6.670;2022-10-23T02:02:22;7.87;;;2.83;;
2940;SDS011;1480;51.456;6.670;2022-10-23T02:04:52;9.57;;;3.47;;
2940;SDS011;1480;51.456;6.670;2022-10-23T02:07:22;6.67;;;3.40;;
2940;SDS011;1480;51.456;6.670;2022-10-23T02:09:49;5.47;;;2.67;;
2940;SDS011;1480;51.456;6.670;2022-10-23T02:12:18;9.37;;;3.77;;
2940;SDS011;1480;51.456;6.670;2022-10-23T02:14:53;5.67;;;2.47;;
2940;SDS011;1480;51.456;6.670;2022-10-23T02:17:28;11.07;;;3.40;;
2940;SDS011;1480;51.456;6.670;2022-10-23T02:20:06;9.30;;;3.23;;
2940;SDS011;1480;51.456;6.670;2022-10-23T02:22:46;7.83;;;3.30;;
2940;SDS011;1480;51.456;6.670;2022-10-23T02:25:31;6.10;;;3.10;;
2940;SDS011;1480;51.456;6.670;2022-10-23T02:28:06;5.63;;;2.57;;
2940;SDS011;1480;51.456;6.670;2022-10-23T02:30:43;3.67;;;2.73;;
2940;SDS011;1480;51.456;6.670;2022-10-23T02:33:12;9.57;;;4.03;;
2940;SDS011;1480;51.456;6.670;2022-10-23T02:35:40;10.73;;;2.97;;
2940;SDS011;1480;51.456;6.670;2022-10-23T02:38:28;7.60;;;3.23;;
2940;SDS011;1480;51.456;6.670;2022-10-23T02:41:00;10.30;;;3.43;;
2940;SDS011;1480;51.456;6.670;2022-10-23T02:43:38;6.70;;;3.70;;
2940;SDS011;1480;51.456;6.670;2022-10-23T02:46:12;8.60;;;3.17;;
2940;SDS011;1480;51.456;6.670;2022-10-23T02:48:47;7.33;;;3.60;;
2940;SDS011;1480;51.456;6.670;2022-10-23T02:51:21;6.00;;;2.90;;
2940;SDS011;1480;51.456;6.670;2022-10-23T02:53:59;8.80;;;3.70;;
2940;SDS011;1480;51.456;6.670;2022-10-23T02:56:35;6.93;;;3.30;;
2940;SDS011;1480;51.456;6.670;2022-10-23T02:59:08;5.77;;;3.30;;
2940;SDS011;1480;51.456;6.670;2022-10-23T03:01:42;4.90;;;2.53;;
2940;SDS011;1480;51.456;6.670;2022-10-23T03:04:14;6.70;;;2.83;;
2940;SDS011;1480;51.456;6.670;2022-10-23T03:06:42;6.37;;;2.80;;
2940;SDS011;1480;51.456;6.670;2022-10-23T03:09:18;6.47;;;2.60;;
2940;SDS011;1480;51.456;6.670;2022-10-23T03:11:45;5.63;;;2.87;;
2940;SDS011;1480;51.456;6.670;2022-10-23T03:14:12;5.73;;;2.60;;
2940;SDS011;1480;51.456;6.670;2022-10-23T03:16:41;5.37;;;2.97;;
2940;SDS011;1480;51.456;6.670;2022-10-23T03:19:08;11.97;;;3.30;;
2940;SDS011;1480;51.456;6.670;2022-10-23T03:21:36;4.50;;;2.53;;
2940;SDS011;1480;51.456;6.670;2022-10-23T03:24:06;5.27;;;2.90;;
2940;SDS011;1480;51.456;6.670;2022-10-23T03:26:39;10.50;;;2.90;;
2940;SDS011;1480;51.456;6.670;2022-10-23T03:29:06;5.27;;;3.20;;
2940;SDS011;1480;51.456;6.670;2022-10-23T03:31:40;9.90;;;3.20;;
2940;SDS011;1480;51.456;6.670;2022-10-23T03:34:07;6.57;;;2.77;;
2940;SDS011;1480;51.456;6.670;2022-10-23T03:36:38;6.17;;;3.17;;
2940;SDS011;1480;51.456;6.670;2022-10-23T03:39:05;6.13;;;2.90;;
2940;SDS011;1480;51.456;6.670;2022-10-23T03:41:32;6.63;;;2.50;;
2940;SDS011;1480;51.456;6.670;2022-10-23T03:43:59;4.23;;;2.30;;
2940;SDS011;1480;51.456;6.670;2022-10-23T03:46:26;5.97;;;2.43;;
2940;SDS011;1480;51.456;6.670;2022-10-23T03:48:54;3.80;;;2.53;;
2940;SDS011;1480;51.456;6.670;2022-10-23T03:51:26;5.60;;;2.90;;
2940;SDS011;1480;51.456;6.670;2022-10-23T03:53:53;6.23;;;2.80;;
2940;SDS011;1480;51.456;6.670;2022-10-23T03:56:20;5.40;;;2.40;;
2940;SDS011;1480;51.456;6.670;2022-10-23T03:58:47;11.80;;;2.80;;
2940;SDS011;1480;51.456;6.670;2022-10-23T04:01:14;4.00;;;2.57;;
2940;SDS011;1480;51.456;6.670;2022-10-23T04:03:43;4.60;;;2.50;;
2940;SDS011;1480;51.456;6.670;2022-10-23T04:06:11;8.07;;;2.70;;
2940;SDS011;1480;51.456;6.670;2022-10-23T04:08:38;6.20;;;2.70;;
2940;SDS011;1480;51.456;6.670;2022-10-23T04:11:12;6.03;;;2.80;;
2940;SDS011;1480;51.456;6.670;2022-10-23T04:13:43;7.20;;;2.47;;
2940;SDS011;1480;51.456;6.670;2022-10-23T04:16:10;4.43;;;2.57;;
2940;SDS011;1480;51.456;6.670;2022-10-23T04:18:38;4.67;;;2.57;;
2940;SDS011;1480;51.456;6.670;2022-10-23T04:21:08;5.83;;;2.70;;
2940;SDS011;1480;51.456;6.670;2022-10-23T04:23:36;6.77;;;2.77;;
2940;SDS011;1480;51.456;6.670;2022-10-23T04:26:08;4.80;;;3.10;;
2940;SDS011;1480;51.456;6.670;2022-10-23T04:28:35;4.20;;;2.80;;
2940;SDS011;1480;51.456;6.670;2022-10-23T04:31:02;5.83;;;2.67;;
2940;SDS011;1480;51.456;6.670;2022-10-23T04:33:29;6.83;;;4.10;;
2940;SDS011;1480;51.456;6.670;2022-10-23T04:35:56;8.47;;;3.20;;
2940;SDS011;1480;51.456;6.670;2022-10-23T04:38:23;10.77;;;2.87;;
2940;SDS011;1480;51.456;6.670;2022-10-23T04:40:52;8.10;;;2.63;;
2940;SDS011;1480;51.456;6.670;2022-10-23T04:43:23;4.50;;;2.23;;
2940;SDS011;1480;51.456;6.670;2022-10-23T04:45:50;3.10;;;2.23;;
2940;SDS011;1480;51.456;6.670;2022-10-23T04:48:18;8.57;;;3.40;;
2940;SDS011;1480;51.456;6.670;2022-10-23T04:51:08;5.53;;;2.90;;
2940;SDS011;1480;51.456;6.670;2022-10-23T04:53:58;6.47;;;2.70;;
2940;SDS011;1480;51.456;6.670;2022-10-23T04:56:57;6.47;;;3.50;;
2940;SDS011;1480;51.456;6.670;2022-10-23T04:59:31;6.00;;;3.00;;
2940;SDS011;1480;51.456;6.670;2022-10-23T05:01:59;10.13;;;2.60;;
2940;SDS011;1480;51.456;6.670;2022-10-23T05:04:27;5.50;;;2.80;;
2940;SDS011;1480;51.456;6.670;2022-10-23T05:07:13;5.77;;;2.40;;
2940;SDS011;1480;51.456;6.670;2022-10-23T05:10:02;5.70;;;2.30;;
2940;SDS011;1480;51.456;6.670;2022-10-23T05:12:39;5.17;;;3.10;;
2940;SDS011;1480;51.456;6.670;2022-10-23T05:15:06;4.87;;;2.80;;
2940;SDS011;1480;51.456;6.670;2022-10-23T05:17:34;9.23;;;2.70;;
2940;SDS011;1480;51.456;6.670;2022-10-23T05:20:03;5.37;;;2.30;;
2940;SDS011;1480;51.456;6.670;2022-10-23T05:22:38;3.30;;;2.30;;
2940;SDS011;1480;51.456;6.670;2022-10-23T05:25:09;6.80;;;2.90;;
2940;SDS011;1480;51.456;6.670;2022-10-23T05:27:42;4.80;;;2.43;;
2940;SDS011;1480;51.456;6.670;2022-10-23T05:30:11;6.90;;;2.50;;
2940;SDS011;1480;51.456;6.670;2022-10-23T05:32:39;8.10;;;3.00;;
2940;SDS011;1480;51.456;6.670;2022-10-23T05:35:07;5.30;;;2.60;;
2940;SDS011;1480;51.456;6.670;2022-10-23T05:37:36;4.30;;;2.20;;
2940;SDS011;1480;51.456;6.670;2022-10-23T05:40:09;6.03;;;2.67;;
2940;SDS011;1480;51.456;6.670;2022-10-23T05:42:41;13.10;;;2.67;;
2940;SDS011;1480;51.456;6.670;2022-10-23T05:45:14;7.40;;;2.10;;
2940;SDS011;1480;51.456;6.670;2022-10-23T05:48:02;7.53;;;2.40;;
2940;SDS011;1480;51.456;6.670;2022-10-23T05:51:02;11.33;;;2.63;;
2940;SDS011;1480;51.456;6.670;2022-10-23T05:53:39;5.57;;;2.30;;
2940;SDS011;1480;51.456;6.670;2022-10-23T05:56:27;5.77;;;2.63;;
2940;SDS011;1480;51.456;6.670;2022-10-23T05:59:06;5.50;;;2.23;;
2940;SDS011;1480;51.456;6.670;2022-10-23T06:01:52;2.07;;;1.70;;
2940;SDS011;1480;51.456;6.670;2022-10-23T06:04:32;5.30;;;2.10;;
2940;SDS011;1480;51.456;6.670;2022-10-23T06:07:05;5.00;;;2.37;;
2940;SDS011;1480;51.456;6.670;2022-10-23T06:09:32;3.70;;;1.97;;
2940;SDS011;1480;51.456;6.670;2022-10-23T06:11:59;5.63;;;2.50;;
2940;SDS011;1480;51.456;6.670;2022-10-23T06:14:30;3.87;;;2.20;;
2940;SDS011;1480;51.456;6.670;2022-10-23T06:16:57;3.97;;;2.43;;
2940;SDS011;1480;51.456;6.670;2022-10-23T06:19:24;5.90;;;3.70;;
2940;SDS011;1480;51.456;6.670;2022-10-23T06:21:55;4.40;;;2.30;;
2940;SDS011;1480;51.456;6.670;2022-10-23T06:24:32;4.90;;;2.40;;
2940;SDS011;1480;51.456;6.670;2022-10-23T06:27:02;6.37;;;2.23;;
2940;SDS011;1480;51.456;6.670;2022-10-23T06:29:42;6.80;;;2.97;;
2940;SDS011;1480;51.456;6.670;2022-10-23T06:32:10;4.77;;;2.70;;
2940;SDS011;1480;51.456;6.670;2022-10-23T06:34:38;6.63;;;2.10;;
2940;SDS011;1480;51.456;6.670;2022-10-23T06:37:06;8.77;;;2.43;;
2940;SDS011;1480;51.456;6.670;2022-10-23T06:39:56;5.00;;;2.53;;
2940;SDS011;1480;51.456;6.670;2022-10-23T06:42:39;7.17;;;2.60;;
2940;SDS011;1480;51.456;6.670;2022-10-23T06:45:31;7.30;;;2.10;;
2940;SDS011;1480;51.456;6.670;2022-10-23T06:48:19;3.17;;;1.90;;
2940;SDS011;1480;51.456;6.670;2022-10-23T06:51:12;5.93;;;2.53;;
2940;SDS011;1480;51.456;6.670;2022-10-23T06:53:42;4.53;;;2.40;;
2940;SDS011;1480;51.456;6.670;2022-10-23T06:56:32;6.93;;;2.50;;
2940;SDS011;1480;51.456;6.670;2022-10-23T06:59:03;6.83;;;2.60;;
2940;SDS011;1480;51.456;6.670;2022-10-23T07:01:33;10.80;;;2.27;;
2940;SDS011;1480;51.456;6.670;2022-10-23T07:04:01;4.27;;;2.17;;
2940;SDS011;1480;51.456;6.670;2022-10-23T07:06:29;3.93;;;2.40;;
2940;SDS011;1480;51.456;6.670;2022-10-23T07:08:56;4.33;;;2.37;;
2940;SDS011;1480;51.456;6.670;2022-10-23T07:11:43;13.37;;;2.43;;
2940;SDS011;1480;51.456;6.670;2022-10-23T07:14:11;6.43;;;2.97;;
2940;SDS011;1480;51.456;6.670;2022-10-23T07:16:39;6.03;;;2.97;;
2940;SDS011;1480;51.456;6.670;2022-10-23T07:19:07;8.50;;;2.33;;
2940;SDS011;1480;51.456;6.670;2022-10-23T07:21:53;7.43;;;2.77;;
2940;SDS011;1480;51.456;6.670;2022-10-23T07:24:32;10.00;;;3.03;;
2940;SDS011;1480;51.456;6.670;2022-10-23T07:27:10;5.33;;;2.90;;
2940;SDS011;1480;51.456;6.670;2022-10-23T07:29:37;9.03;;;2.90;;
2940;SDS011;1480;51.456;6.670;2022-10-23T07:32:06;9.70;;;3.03;;
2940;SDS011;1480;51.456;6.670;2022-10-23T07:35:01;3.07;;;2.20;;
2940;SDS011;1480;51.456;6.670;2022-10-23T07:37:31;4.03;;;1.90;;
2940;SDS011;1480;51.456;6.670;2022-10-23T07:40:00;5.90;;;2.60;;
2940;SDS011;1480;51.456;6.670;2022-10-23T07:42:30;7.57;;;2.80;;
2940;SDS011;1480;51.456;6.670;2022-10-23T07:44:57;3.97;;;2.07;;
2940;SDS011;1480;51.456;6.670;2022-10-23T07:47:26;5.10;;;2.40;;
2940;SDS011;1480;51.456;6.670;2022-10-23T07:49:53;4.57;;;2.23;;
2940;SDS011;1480;51.456;6.670;2022-10-23T07:52:20;7.57;;;3.37;;
2940;SDS011;1480;51.456;6.670;2022-10-23T07:55:07;6.47;;;3.33;;
2940;SDS011;1480;51.456;6.670;2022-10-23T07:57:37;6.90;;;2.60;;
2940;SDS011;1480;51.456;6.670;2022-10-23T08:00:10;7.07;;;2.37;;
2940;SDS011;1480;51.456;6.670;2022-10-23T08:02:46;6.50;;;2.30;;
2940;SDS011;1480;51.456;6.670;2022-10-23T08:05:13;5.30;;;2.43;;
2940;SDS011;1480;51.456;6.670;2022-10-23T08:07:52;5.27;;;2.60;;
2940;SDS011;1480;51.456;6.670;2022-10-23T08:10:21;5.00;;;2.10;;
2940;SDS011;1480;51.456;6.670;2022-10-23T08:12:48;5.80;;;2.70;;
2940;SDS011;1480;51.456;6.670;2022-10-23T08:15:21;6.97;;;2.50;;
2940;SDS011;1480;51.456;6.670;2022-10-23T08:17:54;6.33;;;2.43;;
2940;SDS011;1480;51.456;6.670;2022-10-23T08:20:36;4.90;;;2.40;;
2940;SDS011;1480;51.456;6.670;2022-10-23T08:23:07;4.60;;;2.23;;
2940;SDS011;1480;51.456;6.670;2022-10-23T08:25:38;5.93;;;2.87;;
2940;SDS011;1480;51.456;6.670;2022-10-23T08:28:07;4.80;;;2.00;;
2940;SDS011;1480;51.456;6.670;2022-10-23T08:30:42;5.00;;;1.80;;
2940;SDS011;1480;51.456;6.670;2022-10-23T08:33:11;5.97;;;2.30;;
2940;SDS011;1480;51.456;6.670;2022-10-23T08:35:38;5.50;;;2.20;;
2940;SDS011;1480;51.456;6.670;2022-10-23T08:38:07;3.73;;;1.93;;
2940;SDS011;1480;51.456;6.670;2022-10-23T08:40:42;3.83;;;1.60;;
2940;SDS011;1480;51.456;6.670;2022-10-23T08:43:49;8.03;;;2.07;;
2940;SDS011;1480;51.456;6.670;2022-10-23T08:46:30;2.40;;;1.63;;
2940;SDS011;1480;51.456;6.670;2022-10-23T08:49:29;2.87;;;2.10;;
2940;SDS011;1480;51.456;6.670;2022-10-23T08:52:08;12.03;;;2.33;;
2940;SDS011;1480;51.456;6.670;2022-10-23T08:54:45;6.10;;;2.33;;
2940;SDS011;1480;51.456;6.670;2022-10-23T08:57:23;8.60;;;4.23;;
2940;SDS011;1480;51.456;6.670;2022-10-23T08:59:57;2.93;;;1.50;;
2940;SDS011;1480;51.456;6.670;2022-10-23T09:02:27;5.47;;;1.83;;
2940;SDS011;1480;51.456;6.670;2022-10-23T09:04:58;6.17;;;1.60;;
2940;SDS011;1480;51.456;6.670;2022-10-23T09:07:29;4.10;;;2.17;;
2940;SDS011;1480;51.456;6.670;2022-10-23T09:13:15;4.43;;;1.83;;
2940;SDS011;1480;51.456;6.670;2022-10-23T09:16:06;4.07;;;2.30;;
2940;SDS011;1480;51.456;6.670;2022-10-23T09:18:41;2.93;;;1.60;;
2940;SDS011;1480;51.456;6.670;2022-10-23T09:21:13;2.63;;;1.60;;
2940;SDS011;1480;51.456;6.670;2022-10-23T09:23:41;3.40;;;1.77;;
2940;SDS011;1480;51.456;6.670;2022-10-23T09:26:11;7.03;;;1.93;;
2940;SDS011;1480;51.456;6.670;2022-10-23T09:28:44;7.23;;;1.37;;
2940;SDS011;1480;51.456;6.670;2022-10-23T09:31:13;8.33;;;1.50;;
2940;SDS011;1480;51.456;6.670;2022-10-23T09:33:52;4.30;;;1.63;;
2940;SDS011;1480;51.456;6.670;2022-10-23T09:36:21;4.67;;;1.60;;
2940;SDS011;1480;51.456;6.670;2022-10-23T09:38:50;3.93;;;1.60;;
2940;SDS011;1480;51.456;6.670;2022-10-23T09:41:19;5.80;;;2.30;;
2940;SDS011;1480;51.456;6.670;2022-10-23T09:43:58;3.50;;;2.13;;
2940;SDS011;1480;51.456;6.670;2022-10-23T09:46:39;4.87;;;1.90;;
2940;SDS011;1480;51.456;6.670;2022-10-23T09:49:14;7.60;;;1.53;;
2940;SDS011;1480;51.456;6.670;2022-10-23T09:51:52;5.47;;;2.10;;
2940;SDS011;1480;51.456;6.670;2022-10-23T09:54:27;3.63;;;1.60;;
2940;SDS011;1480;51.456;6.670;2022-10-23T09:56:56;6.43;;;1.50;;
2940;SDS011;1480;51.456;6.670;2022-10-23T09:59:30;4.70;;;1.97;;
2940;SDS011;1480;51.456;6.670;2022-10-23T10:01:59;7.00;;;1.90;;
2940;SDS011;1480;51.456;6.670;2022-10-23T10:04:39;5.23;;;2.07;;
2940;SDS011;1480;51.456;6.670;2022-10-23T10:07:16;6.43;;;1.77;;
2940;SDS011;1480;51.456;6.670;2022-10-23T10:09:46;7.60;;;1.87;;
2940;SDS011;1480;51.456;6.670;2022-10-23T10:12:18;4.33;;;1.80;;
2940;SDS011;1480;51.456;6.670;2022-10-23T10:15:14;2.90;;;1.57;;
2940;SDS011;1480;51.456;6.670;2022-10-23T10:17:51;2.67;;;1.40;;
2940;SDS011;1480;51.456;6.670;2022-10-23T10:20:31;4.00;;;1.70;;
2940;SDS011;1480;51.456;6.670;2022-10-23T10:23:16;5.83;;;2.43;;
2940;SDS011;1480;51.456;6.670;2022-10-23T10:25:51;5.20;;;1.47;;
2940;SDS011;1480;51.456;6.670;2022-10-23T10:28:42;4.53;;;1.77;;
2940;SDS011;1480;51.456;6.670;2022-10-23T10:31:22;5.37;;;1.90;;
2940;SDS011;1480;51.456;6.670;2022-10-23T10:34:09;3.20;;;1.60;;
2940;SDS011;1480;51.456;6.670;2022-10-23T10:36:40;5.43;;;1.97;;
2940;SDS011;1480;51.456;6.670;2022-10-23T10:39:22;6.10;;;1.83;;
2940;SDS011;1480;51.456;6.670;2022-10-23T10:42:06;2.60;;;1.20;;
2940;SDS011;1480;51.456;6.670;2022-10-23T10:47:43;6.57;;;1.93;;
2940;SDS011;1480;51.456;6.670;2022-10-23T10:50:36;2.83;;;1.73;;
2940;SDS011;1480;51.456;6.670;2022-10-23T10:53:17;2.80;;;1.40;;
2940;SDS011;1480;51.456;6.670;2022-10-23T10:56:00;4.23;;;1.73;;
2940;SDS011;1480;51.456;6.670;2022-10-23T10:58:34;4.30;;;1.20;;
2940;SDS011;1480;51.456;6.670;2022-10-23T11:01:07;3.53;;;1.40;;
2940;SDS011;1480;51.456;6.670;2022-10-23T11:03:42;3.57;;;1.83;;
2940;SDS011;1480;51.456;6.670;2022-10-23T11:06:20;4.47;;;2.23;;
2940;SDS011;1480;51.456;6.670;2022-10-23T11:09:04;4.30;;;1.83;;
2940;SDS011;1480;51.456;6.670;2022-10-23T11:11:44;8.63;;;1.80;;
2940;SDS011;1480;51.456;6.670;2022-10-23T11:14:16;3.67;;;1.57;;
2940;SDS011;1480;51.456;6.670;2022-10-23T11:16:52;3.73;;;1.87;;
2940;SDS011;1480;51.456;6.670;2022-10-23T11:19:26;4.40;;;1.83;;
2940;SDS011;1480;51.456;6.670;2022-10-23T11:22:01;6.43;;;1.97;;
2940;SDS011;1480;51.456;6.670;2022-10-23T11:27:39;4.27;;;1.60;;
2940;SDS011;1480;51.456;6.670;2022-10-23T11:30:38;7.30;;;2.00;;
2940;SDS011;1480;51.456;6.670;2022-10-23T11:33:31;3.10;;;1.67;;
2940;SDS011;1480;51.456;6.670;2022-10-23T11:36:30;4.50;;;2.03;;
2940;SDS011;1480;51.456;6.670;2022-10-23T11:39:11;3.60;;;1.70;;
2940;SDS011;1480;51.456;6.670;2022-10-23T11:41:48;4.53;;;1.97;;
2940;SDS011;1480;51.456;6.670;2022-10-23T11:47:26;4.50;;;1.63;;
2940;SDS011;1480;51.456;6.670;2022-10-23T11:52:52;3.07;;;1.53;;
2940;SDS011;1480;51.456;6.670;2022-10-23T11:56:00;2.63;;;1.50;;
2940;SDS011;1480;51.456;6.670;2022-10-23T11:58:47;5.67;;;1.73;;
2940;SDS011;1480;51.456;6.670;2022-10-23T12:04:19;5.60;;;1.63;;
2940;SDS011;1480;51.456;6.670;2022-10-23T12:06:58;4.20;;;1.73;;
2940;SDS011;1480;51.456;6.670;2022-10-23T12:09:29;4.03;;;1.40;;
2940;SDS011;1480;51.456;6.670;2022-10-23T12:12:24;5.07;;;2.03;;
2940;SDS011;1480;51.456;6.670;2022-10-23T12:14:53;4.07;;;1.60;;
2940;SDS011;1480;51.456;6.670;2022-10-23T12:17:35;14.47;;;2.87;;
2940;SDS011;1480;51.456;6.670;2022-10-23T12:20:17;4.37;;;1.40;;
2940;SDS011;1480;51.456;6.670;2022-10-23T12:22:55;10.17;;;1.63;;
2940;SDS011;1480;51.456;6.670;2022-10-23T12:25:37;4.20;;;1.60;;
2940;SDS011;1480;51.456;6.670;2022-10-23T12:28:13;4.50;;;2.40;;
2940;SDS011;1480;51.456;6.670;2022-10-23T12:30:52;4.53;;;2.13;;
2940;SDS011;1480;51.456;6.670;2022-10-23T12:33:30;5.47;;;1.90;;
2940;SDS011;1480;51.456;6.670;2022-10-23T12:36:19;3.87;;;1.80;;
2940;SDS011;1480;51.456;6.670;2022-10-23T12:39:25;6.07;;;2.80;;
2940;SDS011;1480;51.456;6.670;2022-10-23T12:41:59;7.00;;;2.17;;
2940;SDS011;1480;51.456;6.670;2022-10-23T12:44:26;6.23;;;3.43;;
2940;SDS011;1480;51.456;6.670;2022-10-23T12:46:55;6.70;;;2.10;;
2940;SDS011;1480;51.456;6.670;2022-10-23T12:49:32;6.43;;;3.20;;
2940;SDS011;1480;51.456;6.670;2022-10-23T12:52:00;4.60;;;1.80;;
2940;SDS011;1480;51.456;6.670;2022-10-23T12:54:30;4.27;;;2.13;;
2940;SDS011;1480;51.456;6.670;2022-10-23T12:56:58;3.10;;;1.60;;
2940;SDS011;1480;51.456;6.670;2022-10-23T12:59:44;3.93;;;1.40;;
2940;SDS011;1480;51.456;6.670;2022-10-23T13:02:20;7.33;;;2.00;;
2940;SDS011;1480;51.456;6.670;2022-10-23T13:04:59;8.03;;;2.27;;
2940;SDS011;1480;51.456;6.670;2022-10-23T13:07:28;4.70;;;2.43;;
2940;SDS011;1480;51.456;6.670;2022-10-23T13:10:02;4.20;;;1.70;;
2940;SDS011;1480;51.456;6.670;2022-10-23T13:12:34;6.10;;;1.90;;
2940;SDS011;1480;51.456;6.670;2022-10-23T13:15:14;8.43;;;2.07;;
2940;SDS011;1480;51.456;6.670;2022-10-23T13:17:45;5.33;;;1.70;;
2940;SDS011;1480;51.456;6.670;2022-10-23T13:20:26;2.93;;;1.70;;
2940;SDS011;1480;51.456;6.670;2022-10-23T13:22:57;4.60;;;2.10;;
2940;SDS011;1480;51.456;6.670;2022-10-23T13:25:28;5.60;;;2.03;;
2940;SDS011;1480;51.456;6.670;2022-10-23T13:28:03;5.10;;;2.37;;
2940;SDS011;1480;51.456;6.670;2022-10-23T13:30:56;6.90;;;2.30;;
2940;SDS011;1480;51.456;6.670;2022-10-23T13:33:30;6.17;;;2.20;;
2940;SDS011;1480;51.456;6.670;2022-10-23T13:36:02;8.43;;;2.00;;
2940;SDS011;1480;51.456;6.670;2022-10-23T13:38:58;4.37;;;2.13;;
2940;SDS011;1480;51.456;6.670;2022-10-23T13:41:28;5.97;;;2.00;;
2940;SDS011;1480;51.456;6.670;2022-10-23T13:44:05;6.67;;;2.10;;
2940;SDS011;1480;51.456;6.670;2022-10-23T13:46:40;9.07;;;2.27;;
2940;SDS011;1480;51.456;6.670;2022-10-23T13:49:42;3.83;;;2.00;;
2940;SDS011;1480;51.456;6.670;2022-10-23T13:52:20;4.90;;;2.20;;
2940;SDS011;1480;51.456;6.670;2022-10-23T13:54:51;2.93;;;1.90;;
2940;SDS011;1480;51.456;6.670;2022-10-23T13:57:18;10.93;;;2.63;;
2940;SDS011;1480;51.456;6.670;2022-10-23T13:59:46;5.80;;;2.00;;
2940;SDS011;1480;51.456;6.670;2022-10-23T14:02:19;3.90;;;2.20;;
2940;SDS011;1480;51.456;6.670;2022-10-23T14:04:58;3.50;;;2.13;;
2940;SDS011;1480;51.456;6.670;2022-10-23T14:07:32;7.67;;;2.20;;
2940;SDS011;1480;51.456;6.670;2022-10-23T14:10:14;4.93;;;2.23;;
2940;SDS011;1480;51.456;6.670;2022-10-23T14:12:41;4.17;;;2.17;;
2940;SDS011;1480;51.456;6.670;2022-10-23T14:15:09;5.63;;;1.97;;
2940;SDS011;1480;51.456;6.670;2022-10-23T14:17:48;7.40;;;2.60;;
2940;SDS011;1480;51.456;6.670;2022-10-23T14:20:15;8.53;;;2.03;;
2940;SDS011;1480;51.456;6.670;2022-10-23T14:22:54;4.13;;;2.20;;
2940;SDS011;1480;51.456;6.670;2022-10-23T14:25:23;15.90;;;3.60;;
2940;SDS011;1480;51.456;6.670;2022-10-23T14:27:50;9.30;;;3.17;;
2940;SDS011;1480;51.456;6.670;2022-10-23T14:30:17;5.07;;;2.50;;
2940;SDS011;1480;51.456;6.670;2022-10-23T14:32:44;14.07;;;2.67;;
2940;SDS011;1480;51.456;6.670;2022-10-23T14:35:11;4.23;;;2.47;;
2940;SDS011;1480;51.456;6.670;2022-10-23T14:37:38;9.00;;;2.40;;
2940;SDS011;1480;51.456;6.670;2022-10-23T14:40:09;5.20;;;2.30;;
2940;SDS011;1480;51.456;6.670;2022-10-23T14:42:39;10.03;;;3.03;;
2940;SDS011;1480;51.456;6.670;2022-10-23T14:45:09;8.10;;;2.40;;
2940;SDS011;1480;51.456;6.670;2022-10-23T14:47:40;4.77;;;2.90;;
2940;SDS011;1480;51.456;6.670;2022-10-23T14:50:26;7.03;;;2.30;;
2940;SDS011;1480;51.456;6.670;2022-10-23T14:53:39;4.97;;;2.30;;
2940;SDS011;1480;51.456;6.670;2022-10-23T14:56:08;5.63;;;1.97;;
2940;SDS011;1480;51.456;6.670;2022-10-23T14:58:35;9.20;;;2.23;;
2940;SDS011;1480;51.456;6.670;2022-10-23T15:01:06;7.67;;;2.50;;
2940;SDS011;1480;51.456;6.670;2022-10-23T15:03:36;5.77;;;2.70;;
2940;SDS011;1480;51.456;6.670;2022-10-23T15:06:10;4.23;;;2.60;;
2940;SDS011;1480;51.456;6.670;2022-10-23T15:08:42;9.67;;;4.80;;
2940;SDS011;1480;51.456;6.670;2022-10-23T15:11:12;8.47;;;5.00;;
2940;SDS011;1480;51.456;6.670;2022-10-23T15:13:39;7.03;;;3.73;;
2940;SDS011;1480;51.456;6.670;2022-10-23T15:16:08;10.23;;;3.10;;
2940;SDS011;1480;51.456;6.670;2022-10-23T15:18:55;7.17;;;2.73;;
2940;SDS011;1480;51.456;6.670;2022-10-23T15:21:23;6.03;;;2.53;;
2940;SDS011;1480;51.456;6.670;2022-10-23T15:23:50;5.73;;;3.33;;
2940;SDS011;1480;51.456;6.670;2022-10-23T15:26:22;5.37;;;2.63;;
2940;SDS011;1480;51.456;6.670;2022-10-23T15:28:51;7.17;;;3.13;;
2940;SDS011;1480;51.456;6.670;2022-10-23T15:31:23;8.40;;;2.80;;
2940;SDS011;1480;51.456;6.670;2022-10-23T15:34:06;8.23;;;3.97;;
2940;SDS011;1480;51.456;6.670;2022-10-23T15:36:40;8.70;;;3.83;;
2940;SDS011;1480;51.456;6.670;2022-10-23T15:39:09;12.33;;;5.17;;
2940;SDS011;1480;51.456;6.670;2022-10-23T15:41:42;7.00;;;4.17;;
2940;SDS011;1480;51.456;6.670;2022-10-23T15:44:14;5.20;;;4.00;;
2940;SDS011;1480;51.456;6.670;2022-10-23T15:46:48;7.70;;;4.03;;
2940;SDS011;1480;51.456;6.670;2022-10-23T15:49:15;15.10;;;6.10;;
2940;SDS011;1480;51.456;6.670;2022-10-23T15:51:45;13.80;;;8.03;;
2940;SDS011;1480;51.456;6.670;2022-10-23T15:54:28;19.40;;;10.00;;
2940;SDS011;1480;51.456;6.670;2022-10-23T15:57:02;15.60;;;8.73;;
2940;SDS011;1480;51.456;6.670;2022-10-23T15:59:30;20.90;;;8.60;;
2940;SDS011;1480;51.456;6.670;2022-10-23T16:01:59;8.47;;;4.60;;
2940;SDS011;1480;51.456;6.670;2022-10-23T16:04:26;12.53;;;5.50;;
2940;SDS011;1480;51.456;6.670;2022-10-23T16:06:53;13.87;;;5.10;;
2940;SDS011;1480;51.456;6.670;2022-10-23T16:09:20;11.30;;;5.53;;
2940;SDS011;1480;51.456;6.670;2022-10-23T16:11:48;15.53;;;8.37;;
2940;SDS011;1480;51.456;6.670;2022-10-23T16:14:17;17.77;;;9.47;;
2940;SDS011;1480;51.456;6.670;2022-10-23T16:16:44;19.60;;;9.80;;